createdAt,value
2023-01-11T00:01:16.939Z,6.20
2023-01-11T00:03:46.492Z,4.70
2023-01-11T00:06:16.191Z,4.28
2023-01-11T00:08:46.172Z,6.57
2023-01-11T00:11:17.497Z,2.78
2023-01-11T00:13:49.840Z,1.65
2023-01-11T00:16:19.858Z,2.85
2023-01-11T00:18:49.424Z,4.90
2023-01-11T00:21:19.007Z,5.10
2023-01-11T00:23:51.915Z,4.05
2023-01-11T00:26:21.624Z,4.95
2023-01-11T00:28:53.819Z,6.63
2023-01-11T00:31:23.603Z,8.90
2023-01-11T00:33:53.271Z,5.68
2023-01-11T00:36:22.996Z,6.07
2023-01-11T00:38:55.464Z,3.70
2023-01-11T00:41:47.053Z,5.93
2023-01-11T00:44:31.719Z,5.75
2023-01-11T00:47:14.001Z,4.38
2023-01-11T00:49:43.807Z,5.03
2023-01-11T00:52:13.480Z,3.17
2023-01-11T00:54:44.472Z,2.58
2023-01-11T00:57:14.009Z,3.08
2023-01-11T00:59:46.185Z,4.00
2023-01-11T01:02:15.976Z,4.55
2023-01-11T01:04:46.143Z,3.80
2023-01-11T01:07:15.850Z,4.60
2023-01-11T01:09:45.415Z,3.28
2023-01-11T01:12:34.941Z,5.63
2023-01-11T01:15:05.168Z,3.63
2023-01-11T01:17:34.680Z,3.53
2023-01-11T01:20:04.224Z,5.10
2023-01-11T01:22:33.811Z,3.67
2023-01-11T01:25:03.416Z,3.72
2023-01-11T01:27:34.231Z,3.00
2023-01-11T01:30:03.812Z,2.47
2023-01-11T01:32:36.003Z,1.95
2023-01-11T01:35:05.528Z,2.28
2023-01-11T01:37:35.139Z,2.53
2023-01-11T01:40:04.796Z,1.83
2023-01-11T01:42:34.370Z,2.10
2023-01-11T01:45:07.061Z,1.52
2023-01-11T01:47:47.404Z,1.83
2023-01-11T01:50:20.692Z,1.98
2023-01-11T01:52:54.323Z,1.42
2023-01-11T01:55:29.907Z,2.28
2023-01-11T01:58:01.456Z,2.42
2023-01-11T02:00:31.099Z,1.33
2023-01-11T02:03:04.298Z,2.25
2023-01-11T02:05:34.159Z,3.05
2023-01-11T02:08:11.036Z,2.42
2023-01-11T02:10:40.947Z,2.42
2023-01-11T02:13:14.467Z,1.80
2023-01-11T02:15:44.164Z,4.10
2023-01-11T02:18:18.679Z,3.33
2023-01-11T02:21:08.101Z,2.78
2023-01-11T02:24:15.764Z,1.88
2023-01-11T02:27:12.025Z,2.10
2023-01-11T02:29:54.006Z,2.00
2023-01-11T02:32:33.380Z,1.13
2023-01-11T02:35:14.761Z,1.50
2023-01-11T02:37:54.083Z,0.93
2023-01-11T02:40:30.744Z,4.18
2023-01-11T02:43:27.139Z,2.60
2023-01-11T02:46:04.809Z,1.42
2023-01-11T02:48:38.306Z,2.30
2023-01-11T02:51:14.149Z,1.25
2023-01-11T02:53:48.616Z,2.47
2023-01-11T02:56:23.310Z,2.05
2023-01-11T02:58:56.997Z,4.00
2023-01-11T03:01:29.464Z,2.88
2023-01-11T03:03:59.101Z,1.98
2023-01-11T03:06:31.263Z,5.50
2023-01-11T03:09:21.917Z,2.85
2023-01-11T03:12:17.755Z,3.58
2023-01-11T03:14:55.890Z,1.97
2023-01-11T03:17:44.232Z,2.13
2023-01-11T03:20:23.369Z,3.13
2023-01-11T03:23:06.806Z,2.50
2023-01-11T03:25:46.612Z,2.28
2023-01-11T03:28:24.849Z,1.58
2023-01-11T03:31:04.216Z,2.25
2023-01-11T03:33:44.536Z,1.60
2023-01-11T03:36:24.619Z,1.85
2023-01-11T03:38:58.540Z,2.97
2023-01-11T03:41:32.048Z,1.90
2023-01-11T03:44:04.277Z,3.95
2023-01-11T03:46:37.379Z,1.70
2023-01-11T03:49:13.663Z,2.38
2023-01-11T03:51:46.534Z,3.35
2023-01-11T03:54:19.683Z,0.82
2023-01-11T03:56:59.191Z,2.78
2023-01-11T03:59:29.108Z,2.08
2023-01-11T04:01:59.642Z,1.40
2023-01-11T04:04:31.961Z,3.90
2023-01-11T04:07:01.617Z,3.95
2023-01-11T04:09:31.244Z,4.68
2023-01-11T04:12:00.760Z,0.68
2023-01-11T04:14:30.379Z,2.00
2023-01-11T04:16:59.914Z,2.75
2023-01-11T04:19:32.102Z,2.33
2023-01-11T04:22:01.731Z,1.83
2023-01-11T04:24:31.357Z,1.63
2023-01-11T04:27:00.906Z,2.13
2023-01-11T04:29:30.507Z,2.78
2023-01-11T04:32:00.238Z,1.35
2023-01-11T04:34:32.332Z,1.52
2023-01-11T04:37:01.896Z,2.92
2023-01-11T04:39:31.442Z,3.10
2023-01-11T04:42:13.567Z,1.60
2023-01-11T04:44:43.152Z,1.25
2023-01-11T04:47:12.713Z,2.17
2023-01-11T04:49:45.110Z,4.10
2023-01-11T04:52:16.182Z,4.32
2023-01-11T04:54:47.251Z,1.85
2023-01-11T04:57:18.511Z,1.40
2023-01-11T04:59:48.306Z,3.13
2023-01-11T05:02:18.588Z,2.10
2023-01-11T05:04:51.143Z,4.80
2023-01-11T05:07:20.694Z,1.80
2023-01-11T05:09:50.239Z,4.20
2023-01-11T05:12:19.777Z,1.60
2023-01-11T05:14:49.346Z,1.52
2023-01-11T05:17:19.662Z,2.38
2023-01-11T05:19:51.767Z,1.15
2023-01-11T05:22:21.290Z,4.75
2023-01-11T05:24:50.899Z,2.63
2023-01-11T05:27:20.439Z,1.63
2023-01-11T05:29:50.071Z,2.10
2023-01-11T05:32:19.673Z,2.33
2023-01-11T05:34:51.780Z,2.83
2023-01-11T05:37:21.340Z,1.30
2023-01-11T05:39:50.871Z,1.35
2023-01-11T05:42:21.620Z,1.50
2023-01-11T05:45:04.317Z,3.25
2023-01-11T05:47:33.858Z,0.95
2023-01-11T05:50:06.434Z,1.52
2023-01-11T05:52:36.026Z,1.42
2023-01-11T05:55:05.678Z,4.88
2023-01-11T05:57:35.215Z,0.60
2023-01-11T06:00:05.116Z,1.35
2023-01-11T06:02:37.580Z,1.20
2023-01-11T06:05:11.507Z,0.35
2023-01-11T06:07:41.072Z,1.15
2023-01-11T06:10:12.297Z,1.45
2023-01-11T06:12:42.156Z,2.30
2023-01-11T06:15:12.605Z,0.55
2023-01-11T06:17:42.223Z,3.55
2023-01-11T06:20:15.236Z,0.98
2023-01-11T06:22:44.812Z,1.02
2023-01-11T06:25:14.354Z,2.30
2023-01-11T06:27:43.879Z,1.70
2023-01-11T06:30:15.007Z,4.78
2023-01-11T06:32:44.592Z,0.55
2023-01-11T06:35:16.928Z,1.02
2023-01-11T06:37:46.634Z,0.55
2023-01-11T06:40:16.317Z,1.02
2023-01-11T06:42:45.894Z,0.73
2023-01-11T06:45:15.477Z,0.30
2023-01-11T06:47:45.046Z,1.05
2023-01-11T06:50:17.843Z,0.90
2023-01-11T06:52:55.328Z,0.25
2023-01-11T06:55:25.703Z,1.02
2023-01-11T06:57:56.278Z,0.52
2023-01-11T07:00:26.614Z,0.75
2023-01-11T07:02:56.171Z,0.10
2023-01-11T07:05:28.303Z,0.90
2023-01-11T07:07:57.886Z,0.30
2023-01-11T07:10:27.477Z,0.30
2023-01-11T07:12:57.037Z,0.20
2023-01-11T07:15:26.713Z,0.17
2023-01-11T07:17:57.286Z,1.23
2023-01-11T07:20:30.311Z,0.20
2023-01-11T07:23:01.667Z,0.63
2023-01-11T07:25:32.106Z,2.83
2023-01-11T07:28:03.064Z,2.13
2023-01-11T07:30:44.585Z,0.88
2023-01-11T07:33:21.799Z,0.10
2023-01-11T07:35:54.088Z,0.20
2023-01-11T07:38:24.296Z,0.10
2023-01-11T07:40:53.981Z,0.47
2023-01-11T07:43:23.583Z,0.45
2023-01-11T07:45:54.972Z,0.60
2023-01-11T07:48:27.864Z,0.32
2023-01-11T07:51:00.023Z,0.40
2023-01-11T07:53:29.747Z,0.38
2023-01-11T07:55:59.328Z,0.43
2023-01-11T07:58:28.928Z,0.55
2023-01-11T08:01:01.546Z,0.30
2023-01-11T08:03:31.191Z,0.98
2023-01-11T08:06:03.424Z,0.63
2023-01-11T08:08:32.992Z,0.38
2023-01-11T08:11:15.111Z,0.43
2023-01-11T08:13:57.187Z,1.20
2023-01-11T08:16:27.441Z,0.60
2023-01-11T08:18:57.112Z,1.05
2023-01-11T08:21:29.246Z,0.90
2023-01-11T08:23:59.630Z,0.40
2023-01-11T08:26:30.560Z,0.40
2023-01-11T08:29:00.076Z,0.22
2023-01-11T08:31:30.242Z,0.82
2023-01-11T08:33:59.760Z,0.50
2023-01-11T08:36:32.380Z,1.60
2023-01-11T08:39:02.482Z,2.38
2023-01-11T08:41:32.712Z,1.00
2023-01-11T08:44:02.690Z,0.63
2023-01-11T08:46:34.158Z,0.47
2023-01-11T08:49:03.905Z,1.58
2023-01-11T08:51:37.214Z,3.15
2023-01-11T08:54:07.635Z,1.15
2023-01-11T08:56:37.288Z,0.30
2023-01-11T08:59:07.451Z,0.55
2023-01-11T09:01:37.119Z,0.40
2023-01-11T09:04:23.079Z,0.30
2023-01-11T09:06:56.199Z,0.40
2023-01-11T09:09:25.927Z,0.57
2023-01-11T09:12:00.377Z,0.38
2023-01-11T09:14:31.510Z,1.70
2023-01-11T09:17:01.146Z,0.43
2023-01-11T09:19:30.890Z,0.20
2023-01-11T09:22:03.509Z,0.30
2023-01-11T09:24:33.153Z,0.35
2023-01-11T09:27:04.912Z,0.30
2023-01-11T09:29:37.155Z,1.98
2023-01-11T09:32:07.625Z,0.22
2023-01-11T09:34:37.212Z,1.60
2023-01-11T09:37:09.574Z,0.40
2023-01-11T09:39:39.940Z,2.70
2023-01-11T09:42:32.461Z,0.70
2023-01-11T09:45:11.109Z,0.60
2023-01-11T09:47:44.302Z,1.08
2023-01-11T09:50:19.837Z,0.38
2023-01-11T09:52:54.433Z,0.32
2023-01-11T09:55:33.065Z,0.28
2023-01-11T09:58:21.819Z,0.90
2023-01-11T10:01:01.465Z,0.70
2023-01-11T10:04:00.157Z,0.47
2023-01-11T10:06:35.970Z,0.30
2023-01-11T10:18:32.234Z,0.28
2023-01-11T10:19:12.318Z,0.45
2023-01-11T10:21:25.185Z,1.90
2023-01-11T10:24:01.372Z,0.40
2023-01-11T10:26:40.181Z,0.43
2023-01-11T10:29:30.210Z,0.35
2023-01-11T10:32:14.861Z,0.13
2023-01-11T10:35:14.394Z,0.40
2023-01-11T10:37:59.721Z,0.22
2023-01-11T10:40:39.905Z,0.40
2023-01-11T10:43:22.642Z,0.22
2023-01-11T10:45:55.955Z,0.90
2023-01-11T10:48:32.869Z,0.63
2023-01-11T10:51:08.986Z,0.40
2023-01-11T10:53:43.851Z,0.63
2023-01-11T10:56:25.364Z,0.45
2023-01-11T10:59:22.134Z,0.57
2023-01-11T11:02:02.761Z,0.73
2023-01-11T11:04:48.931Z,2.67
2023-01-11T11:07:25.827Z,0.55
2023-01-11T11:10:04.866Z,1.45
2023-01-11T11:12:39.199Z,0.40
2023-01-11T11:15:18.854Z,0.60
2023-01-11T11:17:52.044Z,1.63
2023-01-11T11:20:23.278Z,2.38
2023-01-11T11:22:54.978Z,0.80
2023-01-11T11:25:31.502Z,1.02
2023-01-11T11:28:05.105Z,0.60
2023-01-11T11:30:40.587Z,1.10
2023-01-11T11:33:16.969Z,2.28
2023-01-11T11:35:47.832Z,0.50
2023-01-11T11:38:25.523Z,1.42
2023-01-11T11:41:06.860Z,0.50
2023-01-11T11:43:37.990Z,0.50
2023-01-11T11:46:26.941Z,0.40
2023-01-11T11:49:15.174Z,0.75
2023-01-11T11:51:47.715Z,0.70
2023-01-11T11:54:23.897Z,1.00
2023-01-11T11:56:53.742Z,0.82
2023-01-11T11:59:25.290Z,0.85
2023-01-11T12:02:04.613Z,3.13
2023-01-11T12:04:45.038Z,1.00
2023-01-11T12:07:17.641Z,3.55
2023-01-11T12:09:50.291Z,1.10
2023-01-11T12:12:25.935Z,1.08
2023-01-11T12:15:21.891Z,1.65
2023-01-11T12:17:54.579Z,2.42
2023-01-11T12:20:31.728Z,0.65
2023-01-11T12:23:29.592Z,2.08
2023-01-11T12:26:28.361Z,0.73
2023-01-11T12:29:32.459Z,0.98
2023-01-11T12:32:13.948Z,1.45
2023-01-11T12:35:21.031Z,1.60
2023-01-11T12:38:05.205Z,0.32
2023-01-11T12:40:39.537Z,0.73
2023-01-11T12:43:30.298Z,1.33
2023-01-11T12:46:11.234Z,0.45
2023-01-11T12:48:55.444Z,1.45
2023-01-11T12:51:39.954Z,0.80
2023-01-11T12:54:33.569Z,0.82
2023-01-11T12:57:14.549Z,2.30
2023-01-11T13:00:20.203Z,1.08
2023-01-11T13:03:11.711Z,0.65
2023-01-11T13:05:54.744Z,0.50
2023-01-11T13:08:37.128Z,0.22
2023-01-11T13:11:35.016Z,1.27
2023-01-11T13:14:21.093Z,0.20
2023-01-11T13:17:01.223Z,0.88
2023-01-11T13:19:38.602Z,0.80
2023-01-11T13:22:14.333Z,0.82
2023-01-11T13:24:50.490Z,1.38
2023-01-11T13:27:24.599Z,0.80
2023-01-11T13:29:56.862Z,1.13
2023-01-11T13:32:30.379Z,0.45
2023-01-11T13:35:04.716Z,2.10
2023-01-11T13:37:40.064Z,1.85
2023-01-11T13:40:21.271Z,1.15
2023-01-11T13:42:54.765Z,1.85
2023-01-11T13:45:29.154Z,0.75
2023-01-11T13:48:04.279Z,0.85
2023-01-11T13:50:39.194Z,2.70
2023-01-11T13:53:17.685Z,0.75
2023-01-11T13:56:03.686Z,1.67
2023-01-11T13:58:38.011Z,2.67
2023-01-11T14:01:12.412Z,0.98
2023-01-11T14:03:51.328Z,1.75
2023-01-11T14:06:37.009Z,1.08
2023-01-11T14:09:21.252Z,1.13
2023-01-11T14:12:01.121Z,2.22
2023-01-11T14:14:49.001Z,2.75
2023-01-11T14:17:44.681Z,0.82
2023-01-11T14:20:28.997Z,0.70
2023-01-11T14:23:07.733Z,1.55
2023-01-11T14:25:44.605Z,1.65
2023-01-11T14:28:38.888Z,1.30
2023-01-11T14:31:23.163Z,1.52
2023-01-11T14:34:23.227Z,1.98
2023-01-11T14:37:28.132Z,0.68
2023-01-11T14:40:25.489Z,1.90
2023-01-11T14:43:27.669Z,3.13
2023-01-11T14:46:26.474Z,2.22
2023-01-11T14:49:04.941Z,2.80
2023-01-11T14:51:42.443Z,3.15
2023-01-11T14:54:16.520Z,4.68
2023-01-11T14:56:57.560Z,3.55
2023-01-11T14:59:36.516Z,3.38
2023-01-11T15:02:33.273Z,5.20
2023-01-11T15:05:13.382Z,3.65
2023-01-11T15:07:44.994Z,3.63
2023-01-11T15:10:56.458Z,3.38
2023-01-11T15:13:28.034Z,3.28
2023-01-11T15:16:25.804Z,6.00
2023-01-11T15:18:58.790Z,2.95
2023-01-11T15:21:29.868Z,5.53
2023-01-11T15:24:01.105Z,4.13
2023-01-11T15:26:30.698Z,5.22
2023-01-11T15:29:02.433Z,3.08
2023-01-11T15:31:38.972Z,2.85
2023-01-11T15:34:27.011Z,4.85
2023-01-11T15:37:11.499Z,3.97
2023-01-11T15:39:48.007Z,4.90
2023-01-11T15:42:57.023Z,4.20
2023-01-11T15:46:15.714Z,3.75
2023-01-11T15:49:01.587Z,5.25
2023-01-11T15:51:59.668Z,4.75
2023-01-11T15:55:14.410Z,9.93
2023-01-11T15:58:09.435Z,6.40
2023-01-11T16:00:57.463Z,5.55
2023-01-11T16:03:56.123Z,5.45
2023-01-11T16:06:35.063Z,5.65
2023-01-11T16:09:28.087Z,8.43
2023-01-11T16:12:06.428Z,6.88
2023-01-11T16:15:08.603Z,5.50
2023-01-11T16:17:42.381Z,4.90
2023-01-11T16:20:27.920Z,8.50
2023-01-11T16:22:59.614Z,12.13
2023-01-11T16:25:35.405Z,6.72
2023-01-11T16:30:36.758Z,4.93
2023-01-11T16:33:22.958Z,7.95
2023-01-11T16:35:52.731Z,10.95
2023-01-11T16:38:25.870Z,6.82
2023-01-11T16:40:58.514Z,9.48
2023-01-11T16:43:30.650Z,6.82
2023-01-11T16:46:00.372Z,7.53
2023-01-11T16:48:32.118Z,5.80
2023-01-11T16:51:04.830Z,8.93
2023-01-11T16:53:36.330Z,7.80
2023-01-11T16:56:12.274Z,5.20
2023-01-11T17:01:15.789Z,8.57
2023-01-11T17:03:51.788Z,10.15
2023-01-11T17:06:23.377Z,7.35
2023-01-11T17:08:54.484Z,9.43
2023-01-11T17:11:31.475Z,7.68
2023-01-11T17:14:23.535Z,6.07
2023-01-11T17:16:59.178Z,5.80
2023-01-11T17:22:04.665Z,6.28
2023-01-11T17:24:39.215Z,7.95
2023-01-11T17:27:20.620Z,11.65
2023-01-11T17:29:51.086Z,5.90
2023-01-11T17:32:26.041Z,6.28
2023-01-11T17:34:56.019Z,8.90
2023-01-11T17:37:26.168Z,10.40
2023-01-11T17:39:56.189Z,6.05
2023-01-11T17:42:41.302Z,7.20
2023-01-11T17:45:21.786Z,10.05
2023-01-11T17:47:53.109Z,9.70
2023-01-11T17:50:29.645Z,9.27
2023-01-11T17:53:16.716Z,8.18
2023-01-11T17:55:54.428Z,11.23
2023-01-11T17:58:30.536Z,8.55
2023-01-11T18:01:18.272Z,9.95
2023-01-11T18:03:49.235Z,8.45
2023-01-11T18:06:26.275Z,10.15
2023-01-11T18:08:57.451Z,9.98
2023-01-11T18:11:29.577Z,11.63
2023-01-11T18:14:04.652Z,7.65
2023-01-11T18:16:34.835Z,9.70
2023-01-11T18:19:25.713Z,9.45
2023-01-11T18:21:56.523Z,9.07
2023-01-11T18:24:43.581Z,6.18
2023-01-11T18:27:30.889Z,7.57
2023-01-11T18:30:06.597Z,9.32
2023-01-11T18:35:19.052Z,7.30
2023-01-11T18:37:49.142Z,9.32
2023-01-11T18:40:21.465Z,8.50
2023-01-11T18:42:54.107Z,11.05
2023-01-11T18:45:26.269Z,10.10
2023-01-11T18:47:55.817Z,8.95
2023-01-11T18:50:25.952Z,10.82
2023-01-11T18:52:55.539Z,8.45
2023-01-11T18:55:25.434Z,12.93
2023-01-11T18:57:57.464Z,8.93
2023-01-11T19:00:30.482Z,9.30
2023-01-11T19:03:00.665Z,9.48
2023-01-11T19:05:30.409Z,10.85
2023-01-11T19:07:59.984Z,11.27
2023-01-11T19:10:29.558Z,9.45
2023-01-11T19:13:01.595Z,10.30
2023-01-11T19:15:36.742Z,9.63
2023-01-11T19:18:06.943Z,16.73
2023-01-11T19:20:37.026Z,9.95
2023-01-11T19:23:06.645Z,11.13
2023-01-11T19:25:36.214Z,11.38
2023-01-11T19:28:06.803Z,12.07
2023-01-11T19:30:41.253Z,10.20
2023-01-11T19:33:10.898Z,9.75
2023-01-11T19:35:43.290Z,7.22
2023-01-11T19:38:12.910Z,7.65
2023-01-11T19:40:42.525Z,11.63
2023-01-11T19:43:12.173Z,7.95
2023-01-11T19:45:44.360Z,8.68
2023-01-11T19:48:13.959Z,12.07
2023-01-11T19:50:43.587Z,6.47
2023-01-11T19:53:13.171Z,9.70
2023-01-11T19:55:42.804Z,8.95
2023-01-11T19:58:12.620Z,5.40
2023-01-11T20:00:45.005Z,6.13
2023-01-11T20:03:14.537Z,7.18
2023-01-11T20:05:44.068Z,6.53
2023-01-11T20:08:13.638Z,8.80
2023-01-11T20:10:43.164Z,9.20
2023-01-11T20:13:12.709Z,12.80
2023-01-11T20:15:45.033Z,9.30
2023-01-11T20:18:14.626Z,14.43
2023-01-11T20:20:44.325Z,5.78
2023-01-11T20:23:13.886Z,10.30
2023-01-11T20:25:43.417Z,10.77
2023-01-11T20:28:12.953Z,9.70
2023-01-11T20:30:46.208Z,9.63
2023-01-11T20:33:15.809Z,9.38
2023-01-11T20:35:45.706Z,5.28
2023-01-11T20:38:15.722Z,5.68
2023-01-11T20:40:45.389Z,8.50
2023-01-11T20:43:14.899Z,10.52
2023-01-11T20:45:56.582Z,11.80
2023-01-11T20:48:26.122Z,6.15
2023-01-11T20:50:55.660Z,10.27
2023-01-11T20:53:25.242Z,8.93
2023-01-11T20:55:54.886Z,7.97
2023-01-11T20:58:24.721Z,4.22
2023-01-11T21:00:56.847Z,8.82
2023-01-11T21:03:26.857Z,7.13
2023-01-11T21:05:56.685Z,8.00
2023-01-11T21:08:26.353Z,11.18
2023-01-11T21:10:57.112Z,8.60
2023-01-11T21:13:27.050Z,7.45
2023-01-11T21:15:59.200Z,5.25
2023-01-11T21:18:28.750Z,8.18
2023-01-11T21:20:58.645Z,10.07
2023-01-11T21:23:28.213Z,4.03
2023-01-11T21:25:57.818Z,8.98
2023-01-11T21:28:27.653Z,9.57
2023-01-11T21:31:06.288Z,5.55
2023-01-11T21:33:37.459Z,8.55
2023-01-11T21:36:09.361Z,6.80
2023-01-11T21:38:39.495Z,4.10
2023-01-11T21:41:10.661Z,7.50
2023-01-11T21:43:42.439Z,6.53
2023-01-11T21:46:15.322Z,4.15
2023-01-11T21:48:45.028Z,11.63
2023-01-11T21:51:16.923Z,7.07
2023-01-11T21:53:46.565Z,13.02
2023-01-11T21:56:16.139Z,6.90
2023-01-11T21:58:46.296Z,7.47
2023-01-11T22:01:19.419Z,6.50
2023-01-11T22:03:49.100Z,7.72
2023-01-11T22:06:19.156Z,10.38
2023-01-11T22:08:48.871Z,6.70
2023-01-11T22:11:20.101Z,5.05
2023-01-11T22:13:49.628Z,6.90
2023-01-11T22:16:21.975Z,7.70
2023-01-11T22:18:51.514Z,11.00
2023-01-11T22:21:22.235Z,5.15
2023-01-11T22:23:56.067Z,5.90
2023-01-11T22:26:26.496Z,8.90
2023-01-11T22:29:10.670Z,7.72
2023-01-11T22:31:44.389Z,7.03
2023-01-11T22:34:14.950Z,6.35
2023-01-11T22:36:45.382Z,8.60
2023-01-11T22:39:16.386Z,10.93
2023-01-11T22:41:46.427Z,7.45
2023-01-11T22:44:16.773Z,9.45
2023-01-11T22:46:49.202Z,6.75
2023-01-11T22:49:19.736Z,11.90
2023-01-11T22:51:49.290Z,6.45
2023-01-11T22:54:18.849Z,5.18
2023-01-11T22:56:48.381Z,7.60
2023-01-11T22:59:17.960Z,5.45
2023-01-11T23:01:52.924Z,5.47
2023-01-11T23:04:22.518Z,5.30
2023-01-11T23:06:52.077Z,10.88
2023-01-11T23:09:21.809Z,8.55
2023-01-11T23:12:03.926Z,8.00
2023-01-11T23:14:35.216Z,9.77
2023-01-11T23:17:08.488Z,9.57
2023-01-11T23:19:39.753Z,8.38
2023-01-11T23:22:10.248Z,5.25
2023-01-11T23:24:41.145Z,5.00
2023-01-11T23:27:10.845Z,5.38
2023-01-11T23:29:40.461Z,3.08
2023-01-11T23:32:12.932Z,5.03
2023-01-11T23:34:42.514Z,4.20
2023-01-11T23:37:12.061Z,7.03
2023-01-11T23:39:41.621Z,5.22
2023-01-11T23:42:25.323Z,6.50
2023-01-11T23:44:55.076Z,4.53
2023-01-11T23:47:26.035Z,10.18
2023-01-11T23:49:58.025Z,5.45
2023-01-11T23:52:29.367Z,9.00
2023-01-11T23:54:58.957Z,5.38
2023-01-11T23:57:29.184Z,6.60
2023-01-11T23:59:58.767Z,5.45
